Terminal Aerodrome Forecast
Issued by NWS Sioux Falls, SD

Home | Current Version | Previous Version | Text Only | Print | Product List | Glossary On
Versions: 1 2 3 4 5 6 7 8 9 10 11 12 13 14 15 16 17 18 19
858
FTUS43 KFSD 171519 AAA
TAFHON
TAF AMD
KHON 171519Z 1715/1812 31009KT 2SM -SN BKN030
     FM171630 31007KT P6SM BKN100
     FM171800 32011G17KT P6SM SCT140
     FM172300 30006KT P6SM FEW250
     FM180600 14008KT P6SM SCT100
     FM180900 13015G25KT P6SM BKN100 WS015/15040KT=

USA.gov is the U.S. government's official web portal to all federal, state and local government web resources and services.